• Join FlightAware (Why Join?)
  • Login
  • US Flag 
01:09PM EDT


 

Airport Tracker/Info


-or-


 

Live Flight TrackerFlight Track Log ✈ N75AW ✈ 13-Jun-2013 ✈ KAPF - KEYW

Flight Track Log - Related Links

Times and Time Zones

All times are in EDT time to prevent confusion due to time zone crossing. See the N75AW flight status page for this flight to view local times or setup timezone preferences in your user account.

Time Position Orientation Groundspeed Altitude Reporting Facility
EDT Latitude Longitude Course Direction KTS MPH feet Rate Location/Type
09:45AM 26.1014 -81.7378 166° South 160 184 4,300  Level Miami Center
09:46AM 26.0658 -81.7342 175° South 147 169 6,600 2,160 Climbing Miami Center
09:47AM 26.0242 -81.7347 181° South 154 177 8,700 1,740 Climbing Miami Center
09:48AM 25.9781 -81.7375 183° South 160 184 10,100 1,020 Climbing Miami Center
09:49AM 25.9175 -81.7419 184° South 191 220 10,800 1,080 Climbing Miami Center
09:50AM 25.8548 -81.6037 166° South  Level FlightAware Approximate
09:50AM 25.8567 -81.7442 182° South 211 243 12,300  Level Miami Center
09:51AM 25.8006 -81.5883 166° South  Level FlightAware Approximate
09:51AM 25.7983 -81.7417 178° South 217 250 13,100  Level Miami Center
09:52AM 25.7253 -81.7456 183° South 236 272 13,200  Climbing Miami Center
09:53AM 25.6603 -81.7500 184° South 256 295 13,100 -120 Descending Miami Center
09:54AM 25.5872 -81.7492 179° South 268 308 13,000 -420 Descending Miami Center
09:55AM 25.5078 -81.7531 183° South 273 314 12,300 -720 Descending Miami Center
09:56AM 25.4286 -81.7497 178° South 273 314 11,600 -840 Descending Miami Center
09:57AM 25.3511 -81.7536 183° South 278 320 10,700 -900 Descending Miami Center
09:58AM 25.2739 -81.7528 179° South 278 320 9,900 -780 Descending Miami Center
09:59AM 25.1986 -81.7542 181° South 278 320 9,200 -720 Descending Miami Center
10:00AM 25.1256 -81.7558 181° South 272 313 8,500 -600 Descending Miami Center
10:01AM 25.0525 -81.7575 181° South 272 313 8,100 -240 Descending Miami Center
10:02AM 24.9814 -81.7594 181° South 267 307 8,100 -660 Level Miami Center
10:03AM 24.9097 -81.7772 193° South 267 307 6,800 -1,500 Descending Miami Center
10:04AM 24.8339 -81.7947 192° South 273 314 5,100 -1,500 Descending Miami Center
10:05AM 24.7667 -81.8125 194° South 273 314 3,800 -1,320 Descending Miami Center
10:06AM 24.6992 -81.8281 192° South 257 296 2,500 -1,320 Descending Miami Center
10:08AM 24.6303 -81.7920 155° Southeast  Level FlightAware Approximate
10:15AM 24.5561 -81.7596 180° South  Level Estimated
10:16AM 24.5561 -81.7596 180° South  Level Estimated
10:17AM 24.5561 -81.7596 180° South  Level Estimated
10:18AM 24.5561 -81.7596 180° South  Level Estimated